Marchena, Spain
Current Conditions -  °F | °C
As of 7:00 PM on Tuesday 27 Jan 2015 (Local Time) from LEMO Reporting Station
Clear Clear  
Wind Chill: 55°   Ceiling: Unl
Heat Index: 55°   Visibility: 6mi
Dew Point: 41°   Wind: 1mph
Humidity: 58%   Direction: 340°NNW
Pressure: 30.3"   Gusts: NA
Location:  37.33°N, 5.42°W
Report Text: LEMO 271800Z 34001KT CAVOK 13/05 Q1026 NOSIG
Loading
Personal Weather Stations






























Interactive Weather Map New forecast layout! Learn more

10-Day Weather Forecast

Advertisements
Track Severe Weather on mobile